sensor_id;sensor_type;location;lat;lon;timestamp;P1;durP1;ratioP1;P2;durP2;ratioP2
64339;SDS011;63709;53.258;-8.814;2022-10-19T00:00:14;15.43;;;4.22;;
64339;SDS011;63709;53.258;-8.814;2022-10-19T00:03:40;15.15;;;4.40;;
64339;SDS011;63709;53.258;-8.814;2022-10-19T00:07:05;13.77;;;3.90;;
64339;SDS011;63709;53.258;-8.814;2022-10-19T00:10:29;11.13;;;3.30;;
64339;SDS011;63709;53.258;-8.814;2022-10-19T00:13:55;12.90;;;3.92;;
64339;SDS011;63709;53.258;-8.814;2022-10-19T00:17:20;8.80;;;3.00;;
64339;SDS011;63709;53.258;-8.814;2022-10-19T00:20:44;13.50;;;3.20;;
64339;SDS011;63709;53.258;-8.814;2022-10-19T00:24:09;11.80;;;3.25;;
64339;SDS011;63709;53.258;-8.814;2022-10-19T00:27:33;12.57;;;3.00;;
64339;SDS011;63709;53.258;-8.814;2022-10-19T00:31:04;11.48;;;3.72;;
64339;SDS011;63709;53.258;-8.814;2022-10-19T00:34:29;12.88;;;3.30;;
64339;SDS011;63709;53.258;-8.814;2022-10-19T00:37:53;9.98;;;3.03;;
64339;SDS011;63709;53.258;-8.814;2022-10-19T00:41:18;10.65;;;2.85;;
64339;SDS011;63709;53.258;-8.814;2022-10-19T00:48:07;8.77;;;3.08;;
64339;SDS011;63709;53.258;-8.814;2022-10-19T00:51:41;13.77;;;3.35;;
64339;SDS011;63709;53.258;-8.814;2022-10-19T00:58:37;11.60;;;3.25;;
64339;SDS011;63709;53.258;-8.814;2022-10-19T01:02:04;8.20;;;2.70;;
64339;SDS011;63709;53.258;-8.814;2022-10-19T01:05:29;15.55;;;4.22;;
64339;SDS011;63709;53.258;-8.814;2022-10-19T01:08:55;17.23;;;3.55;;
64339;SDS011;63709;53.258;-8.814;2022-10-19T01:16:52;11.30;;;3.00;;
64339;SDS011;63709;53.258;-8.814;2022-10-19T01:27:50;11.90;;;3.10;;
64339;SDS011;63709;53.258;-8.814;2022-10-19T01:32:12;10.68;;;3.03;;
64339;SDS011;63709;53.258;-8.814;2022-10-19T01:39:14;10.18;;;2.70;;
64339;SDS011;63709;53.258;-8.814;2022-10-19T01:43:06;9.38;;;2.80;;
64339;SDS011;63709;53.258;-8.814;2022-10-19T01:46:38;8.65;;;2.40;;
64339;SDS011;63709;53.258;-8.814;2022-10-19T01:50:13;10.13;;;2.97;;
64339;SDS011;63709;53.258;-8.814;2022-10-19T01:53:43;6.70;;;2.58;;
64339;SDS011;63709;53.258;-8.814;2022-10-19T01:57:11;6.35;;;2.08;;
64339;SDS011;63709;53.258;-8.814;2022-10-19T02:00:41;7.20;;;2.83;;
64339;SDS011;63709;53.258;-8.814;2022-10-19T02:04:14;10.63;;;2.63;;
64339;SDS011;63709;53.258;-8.814;2022-10-19T02:07:44;11.70;;;2.80;;
64339;SDS011;63709;53.258;-8.814;2022-10-19T02:11:11;9.32;;;2.40;;
64339;SDS011;63709;53.258;-8.814;2022-10-19T02:14:44;11.20;;;2.70;;
64339;SDS011;63709;53.258;-8.814;2022-10-19T02:18:13;10.57;;;2.67;;
64339;SDS011;63709;53.258;-8.814;2022-10-19T02:21:40;8.18;;;2.67;;
64339;SDS011;63709;53.258;-8.814;2022-10-19T02:25:04;9.80;;;2.70;;
64339;SDS011;63709;53.258;-8.814;2022-10-19T02:28:29;9.27;;;2.60;;
64339;SDS011;63709;53.258;-8.814;2022-10-19T02:31:54;16.00;;;3.50;;
64339;SDS011;63709;53.258;-8.814;2022-10-19T02:35:18;11.98;;;2.63;;
64339;SDS011;63709;53.258;-8.814;2022-10-19T02:38:44;9.95;;;3.05;;
64339;SDS011;63709;53.258;-8.814;2022-10-19T02:42:13;7.65;;;3.17;;
64339;SDS011;63709;53.258;-8.814;2022-10-19T02:45:48;7.70;;;2.92;;
64339;SDS011;63709;53.258;-8.814;2022-10-19T02:49:27;12.32;;;3.40;;
64339;SDS011;63709;53.258;-8.814;2022-10-19T02:52:52;12.48;;;3.25;;
64339;SDS011;63709;53.258;-8.814;2022-10-19T02:56:16;12.98;;;3.47;;
64339;SDS011;63709;53.258;-8.814;2022-10-19T02:59:45;13.13;;;3.22;;
64339;SDS011;63709;53.258;-8.814;2022-10-19T03:03:10;11.50;;;2.90;;
64339;SDS011;63709;53.258;-8.814;2022-10-19T03:06:34;8.15;;;3.17;;
64339;SDS011;63709;53.258;-8.814;2022-10-19T03:09:58;13.80;;;3.10;;
64339;SDS011;63709;53.258;-8.814;2022-10-19T03:13:23;10.73;;;3.15;;
64339;SDS011;63709;53.258;-8.814;2022-10-19T03:16:48;9.80;;;2.88;;
64339;SDS011;63709;53.258;-8.814;2022-10-19T03:20:12;9.00;;;3.00;;
64339;SDS011;63709;53.258;-8.814;2022-10-19T03:23:37;9.27;;;2.85;;
64339;SDS011;63709;53.258;-8.814;2022-10-19T03:27:01;7.88;;;3.05;;
64339;SDS011;63709;53.258;-8.814;2022-10-19T03:30:26;10.95;;;3.03;;
64339;SDS011;63709;53.258;-8.814;2022-10-19T03:33:51;15.10;;;4.28;;
64339;SDS011;63709;53.258;-8.814;2022-10-19T03:37:15;13.25;;;3.33;;
64339;SDS011;63709;53.258;-8.814;2022-10-19T03:40:39;11.57;;;3.47;;
64339;SDS011;63709;53.258;-8.814;2022-10-19T03:44:04;13.18;;;3.63;;
64339;SDS011;63709;53.258;-8.814;2022-10-19T03:47:29;10.20;;;3.38;;
64339;SDS011;63709;53.258;-8.814;2022-10-19T03:51:27;13.02;;;4.35;;
64339;SDS011;63709;53.258;-8.814;2022-10-19T03:54:44;10.70;;;3.92;;
64339;SDS011;63709;53.258;-8.814;2022-10-19T03:58:08;14.57;;;3.95;;
64339;SDS011;63709;53.258;-8.814;2022-10-19T04:01:37;13.95;;;4.05;;
64339;SDS011;63709;53.258;-8.814;2022-10-19T04:05:01;13.02;;;3.78;;
64339;SDS011;63709;53.258;-8.814;2022-10-19T04:08:27;13.98;;;4.57;;
64339;SDS011;63709;53.258;-8.814;2022-10-19T04:11:51;17.13;;;4.40;;
64339;SDS011;63709;53.258;-8.814;2022-10-19T04:15:15;14.35;;;4.18;;
64339;SDS011;63709;53.258;-8.814;2022-10-19T04:18:39;14.30;;;4.65;;
64339;SDS011;63709;53.258;-8.814;2022-10-19T04:22:03;14.07;;;4.78;;
64339;SDS011;63709;53.258;-8.814;2022-10-19T04:25:28;16.58;;;4.78;;
64339;SDS011;63709;53.258;-8.814;2022-10-19T04:28:52;14.50;;;5.10;;
64339;SDS011;63709;53.258;-8.814;2022-10-19T04:32:17;17.92;;;5.13;;
64339;SDS011;63709;53.258;-8.814;2022-10-19T04:35:41;17.27;;;5.47;;
64339;SDS011;63709;53.258;-8.814;2022-10-19T04:39:05;9.98;;;4.32;;
64339;SDS011;63709;53.258;-8.814;2022-10-19T04:42:30;15.65;;;4.28;;
64339;SDS011;63709;53.258;-8.814;2022-10-19T04:45:55;10.18;;;3.45;;
64339;SDS011;63709;53.258;-8.814;2022-10-19T04:49:19;10.38;;;3.75;;
64339;SDS011;63709;53.258;-8.814;2022-10-19T04:52:44;10.10;;;3.58;;
64339;SDS011;63709;53.258;-8.814;2022-10-19T04:56:13;10.38;;;4.07;;
64339;SDS011;63709;53.258;-8.814;2022-10-19T04:59:37;10.88;;;3.70;;
64339;SDS011;63709;53.258;-8.814;2022-10-19T05:03:03;13.82;;;4.35;;
64339;SDS011;63709;53.258;-8.814;2022-10-19T05:06:28;13.05;;;3.15;;
64339;SDS011;63709;53.258;-8.814;2022-10-19T05:09:52;10.48;;;3.40;;
64339;SDS011;63709;53.258;-8.814;2022-10-19T05:13:16;10.98;;;3.78;;
64339;SDS011;63709;53.258;-8.814;2022-10-19T05:16:41;11.73;;;3.40;;
64339;SDS011;63709;53.258;-8.814;2022-10-19T05:20:05;10.45;;;3.42;;
64339;SDS011;63709;53.258;-8.814;2022-10-19T05:23:31;15.45;;;5.18;;
64339;SDS011;63709;53.258;-8.814;2022-10-19T05:26:56;11.10;;;3.78;;
64339;SDS011;63709;53.258;-8.814;2022-10-19T05:30:21;15.43;;;4.35;;
64339;SDS011;63709;53.258;-8.814;2022-10-19T05:33:45;18.23;;;4.28;;
64339;SDS011;63709;53.258;-8.814;2022-10-19T05:37:10;14.93;;;4.93;;
64339;SDS011;63709;53.258;-8.814;2022-10-19T05:40:34;23.25;;;5.05;;
64339;SDS011;63709;53.258;-8.814;2022-10-19T05:44:00;12.95;;;4.85;;
64339;SDS011;63709;53.258;-8.814;2022-10-19T05:47:24;16.83;;;5.38;;
64339;SDS011;63709;53.258;-8.814;2022-10-19T05:50:52;15.38;;;5.05;;
64339;SDS011;63709;53.258;-8.814;2022-10-19T05:54:16;15.02;;;4.80;;
64339;SDS011;63709;53.258;-8.814;2022-10-19T05:57:40;13.45;;;5.03;;
64339;SDS011;63709;53.258;-8.814;2022-10-19T06:01:04;14.40;;;5.88;;
64339;SDS011;63709;53.258;-8.814;2022-10-19T06:04:29;12.52;;;5.55;;
64339;SDS011;63709;53.258;-8.814;2022-10-19T06:07:54;16.92;;;5.07;;
64339;SDS011;63709;53.258;-8.814;2022-10-19T06:11:21;15.32;;;5.68;;
64339;SDS011;63709;53.258;-8.814;2022-10-19T06:14:48;21.75;;;5.63;;
64339;SDS011;63709;53.258;-8.814;2022-10-19T06:18:17;11.95;;;4.78;;
64339;SDS011;63709;53.258;-8.814;2022-10-19T06:21:43;11.18;;;4.72;;
64339;SDS011;63709;53.258;-8.814;2022-10-19T06:25:08;17.08;;;5.05;;
64339;SDS011;63709;53.258;-8.814;2022-10-19T06:28:37;14.05;;;5.43;;
64339;SDS011;63709;53.258;-8.814;2022-10-19T06:32:02;14.40;;;5.00;;
64339;SDS011;63709;53.258;-8.814;2022-10-19T06:35:27;7.03;;;4.57;;
64339;SDS011;63709;53.258;-8.814;2022-10-19T06:38:52;13.93;;;5.50;;
64339;SDS011;63709;53.258;-8.814;2022-10-19T06:42:17;15.35;;;5.30;;
64339;SDS011;63709;53.258;-8.814;2022-10-19T06:45:42;11.13;;;4.57;;
64339;SDS011;63709;53.258;-8.814;2022-10-19T06:49:06;11.45;;;4.80;;
64339;SDS011;63709;53.258;-8.814;2022-10-19T06:52:34;7.97;;;4.03;;
64339;SDS011;63709;53.258;-8.814;2022-10-19T06:56:00;11.80;;;4.88;;
64339;SDS011;63709;53.258;-8.814;2022-10-19T06:59:25;11.85;;;4.10;;
64339;SDS011;63709;53.258;-8.814;2022-10-19T07:02:49;10.65;;;4.35;;
64339;SDS011;63709;53.258;-8.814;2022-10-19T07:06:18;6.75;;;3.72;;
64339;SDS011;63709;53.258;-8.814;2022-10-19T07:09:42;9.02;;;3.78;;
64339;SDS011;63709;53.258;-8.814;2022-10-19T07:13:07;7.82;;;3.08;;
64339;SDS011;63709;53.258;-8.814;2022-10-19T07:16:31;9.65;;;3.42;;
64339;SDS011;63709;53.258;-8.814;2022-10-19T07:19:55;9.95;;;3.28;;
64339;SDS011;63709;53.258;-8.814;2022-10-19T07:23:24;8.80;;;4.07;;
64339;SDS011;63709;53.258;-8.814;2022-10-19T07:26:50;8.90;;;3.90;;
64339;SDS011;63709;53.258;-8.814;2022-10-19T07:30:14;8.30;;;3.25;;
64339;SDS011;63709;53.258;-8.814;2022-10-19T07:33:43;7.22;;;3.00;;
64339;SDS011;63709;53.258;-8.814;2022-10-19T07:37:07;5.88;;;3.00;;
64339;SDS011;63709;53.258;-8.814;2022-10-19T07:40:33;7.25;;;2.90;;
64339;SDS011;63709;53.258;-8.814;2022-10-19T07:44:02;8.85;;;3.03;;
64339;SDS011;63709;53.258;-8.814;2022-10-19T07:47:27;6.57;;;2.83;;
64339;SDS011;63709;53.258;-8.814;2022-10-19T07:50:52;6.82;;;2.80;;
64339;SDS011;63709;53.258;-8.814;2022-10-19T07:54:21;8.40;;;2.92;;
64339;SDS011;63709;53.258;-8.814;2022-10-19T07:57:46;10.30;;;4.88;;
64339;SDS011;63709;53.258;-8.814;2022-10-19T08:01:12;7.97;;;3.42;;
64339;SDS011;63709;53.258;-8.814;2022-10-19T08:04:41;8.93;;;4.05;;
64339;SDS011;63709;53.258;-8.814;2022-10-19T08:08:06;8.20;;;4.20;;
64339;SDS011;63709;53.258;-8.814;2022-10-19T08:11:33;11.93;;;4.40;;
64339;SDS011;63709;53.258;-8.814;2022-10-19T08:14:59;9.95;;;4.88;;
64339;SDS011;63709;53.258;-8.814;2022-10-19T08:18:24;8.45;;;4.25;;
64339;SDS011;63709;53.258;-8.814;2022-10-19T08:21:48;11.23;;;4.30;;
64339;SDS011;63709;53.258;-8.814;2022-10-19T08:25:13;7.65;;;3.25;;
64339;SDS011;63709;53.258;-8.814;2022-10-19T08:28:38;7.43;;;4.15;;
64339;SDS011;63709;53.258;-8.814;2022-10-19T08:32:02;10.52;;;3.97;;
64339;SDS011;63709;53.258;-8.814;2022-10-19T08:35:29;9.57;;;3.95;;
64339;SDS011;63709;53.258;-8.814;2022-10-19T08:38:57;10.27;;;4.13;;
64339;SDS011;63709;53.258;-8.814;2022-10-19T08:42:30;10.07;;;4.43;;
64339;SDS011;63709;53.258;-8.814;2022-10-19T08:46:13;8.52;;;4.32;;
64339;SDS011;63709;53.258;-8.814;2022-10-19T08:50:00;13.63;;;4.93;;
64339;SDS011;63709;53.258;-8.814;2022-10-19T08:57:24;8.68;;;4.78;;
64339;SDS011;63709;53.258;-8.814;2022-10-19T09:01:10;8.85;;;4.72;;
64339;SDS011;63709;53.258;-8.814;2022-10-19T09:04:57;8.50;;;4.15;;
64339;SDS011;63709;53.258;-8.814;2022-10-19T09:08:47;6.75;;;3.42;;
64339;SDS011;63709;53.258;-8.814;2022-10-19T09:12:23;6.85;;;4.05;;
64339;SDS011;63709;53.258;-8.814;2022-10-19T09:15:54;8.30;;;4.63;;
64339;SDS011;63709;53.258;-8.814;2022-10-19T09:19:21;6.97;;;4.18;;
64339;SDS011;63709;53.258;-8.814;2022-10-19T09:23:28;10.75;;;5.00;;
64339;SDS011;63709;53.258;-8.814;2022-10-19T09:27:04;10.63;;;5.65;;
64339;SDS011;63709;53.258;-8.814;2022-10-19T09:30:53;12.55;;;5.20;;
64339;SDS011;63709;53.258;-8.814;2022-10-19T09:38:04;12.20;;;4.85;;
64339;SDS011;63709;53.258;-8.814;2022-10-19T09:41:29;10.13;;;4.43;;
64339;SDS011;63709;53.258;-8.814;2022-10-19T09:44:59;14.38;;;4.18;;
64339;SDS011;63709;53.258;-8.814;2022-10-19T09:56:16;6.78;;;4.00;;
64339;SDS011;63709;53.258;-8.814;2022-10-19T09:59:45;7.45;;;3.90;;
64339;SDS011;63709;53.258;-8.814;2022-10-19T10:03:22;10.07;;;4.38;;
64339;SDS011;63709;53.258;-8.814;2022-10-19T10:06:48;10.52;;;4.88;;
64339;SDS011;63709;53.258;-8.814;2022-10-19T10:13:52;9.80;;;5.22;;
64339;SDS011;63709;53.258;-8.814;2022-10-19T10:17:19;8.57;;;4.05;;
64339;SDS011;63709;53.258;-8.814;2022-10-19T10:20:58;8.57;;;3.58;;
64339;SDS011;63709;53.258;-8.814;2022-10-19T10:24:27;11.75;;;4.72;;
64339;SDS011;63709;53.258;-8.814;2022-10-19T10:27:58;10.02;;;4.68;;
64339;SDS011;63709;53.258;-8.814;2022-10-19T10:31:23;8.02;;;4.50;;
64339;SDS011;63709;53.258;-8.814;2022-10-19T10:35:24;7.68;;;3.60;;
64339;SDS011;63709;53.258;-8.814;2022-10-19T10:38:48;7.97;;;3.85;;
64339;SDS011;63709;53.258;-8.814;2022-10-19T10:42:18;6.85;;;3.80;;
64339;SDS011;63709;53.258;-8.814;2022-10-19T10:45:46;6.65;;;3.70;;
64339;SDS011;63709;53.258;-8.814;2022-10-19T10:49:32;7.75;;;3.40;;
64339;SDS011;63709;53.258;-8.814;2022-10-19T10:53:01;10.00;;;4.10;;
64339;SDS011;63709;53.258;-8.814;2022-10-19T10:56:39;6.32;;;3.42;;
64339;SDS011;63709;53.258;-8.814;2022-10-19T11:00:16;10.75;;;4.40;;
64339;SDS011;63709;53.258;-8.814;2022-10-19T11:03:48;8.93;;;4.47;;
64339;SDS011;63709;53.258;-8.814;2022-10-19T11:07:17;6.95;;;4.43;;
64339;SDS011;63709;53.258;-8.814;2022-10-19T11:11:05;5.43;;;3.13;;
64339;SDS011;63709;53.258;-8.814;2022-10-19T11:18:15;6.72;;;3.40;;
64339;SDS011;63709;53.258;-8.814;2022-10-19T11:21:49;7.15;;;3.53;;
64339;SDS011;63709;53.258;-8.814;2022-10-19T11:29:32;9.70;;;3.35;;
64339;SDS011;63709;53.258;-8.814;2022-10-19T11:37:12;6.07;;;3.00;;
64339;SDS011;63709;53.258;-8.814;2022-10-19T11:51:59;13.32;;;5.25;;
64339;SDS011;63709;53.258;-8.814;2022-10-19T11:55:40;11.77;;;5.28;;
64339;SDS011;63709;53.258;-8.814;2022-10-19T11:59:26;6.22;;;3.60;;
64339;SDS011;63709;53.258;-8.814;2022-10-19T12:06:30;6.00;;;2.83;;
64339;SDS011;63709;53.258;-8.814;2022-10-19T12:14:04;10.65;;;3.30;;
64339;SDS011;63709;53.258;-8.814;2022-10-19T12:17:36;8.88;;;3.05;;
64339;SDS011;63709;53.258;-8.814;2022-10-19T12:21:13;6.13;;;2.97;;
64339;SDS011;63709;53.258;-8.814;2022-10-19T12:24:52;6.75;;;3.20;;
64339;SDS011;63709;53.258;-8.814;2022-10-19T12:28:20;9.27;;;3.88;;
64339;SDS011;63709;53.258;-8.814;2022-10-19T12:31:49;7.72;;;3.22;;
64339;SDS011;63709;53.258;-8.814;2022-10-19T12:35:57;6.80;;;3.25;;
64339;SDS011;63709;53.258;-8.814;2022-10-19T13:27:25;8.05;;;3.15;;
64339;SDS011;63709;53.258;-8.814;2022-10-19T13:34:19;5.25;;;2.63;;
64339;SDS011;63709;53.258;-8.814;2022-10-19T13:41:51;8.48;;;3.60;;
64339;SDS011;63709;53.258;-8.814;2022-10-19T13:45:22;7.30;;;3.67;;
64339;SDS011;63709;53.258;-8.814;2022-10-19T13:52:50;6.05;;;3.20;;
64339;SDS011;63709;53.258;-8.814;2022-10-19T14:01:12;7.68;;;3.95;;
64339;SDS011;63709;53.258;-8.814;2022-10-19T14:11:59;7.07;;;3.10;;
64339;SDS011;63709;53.258;-8.814;2022-10-19T14:15:29;7.78;;;3.00;;
64339;SDS011;63709;53.258;-8.814;2022-10-19T14:18:54;6.80;;;3.20;;
64339;SDS011;63709;53.258;-8.814;2022-10-19T14:22:25;10.02;;;3.08;;
64339;SDS011;63709;53.258;-8.814;2022-10-19T14:25:51;10.23;;;3.30;;
64339;SDS011;63709;53.258;-8.814;2022-10-19T14:29:16;7.72;;;3.22;;
64339;SDS011;63709;53.258;-8.814;2022-10-19T14:32:52;5.95;;;3.00;;
64339;SDS011;63709;53.258;-8.814;2022-10-19T14:36:22;4.90;;;3.00;;
64339;SDS011;63709;53.258;-8.814;2022-10-19T14:39:57;12.27;;;3.50;;
64339;SDS011;63709;53.258;-8.814;2022-10-19T14:43:22;6.75;;;3.30;;
64339;SDS011;63709;53.258;-8.814;2022-10-19T14:47:05;9.52;;;4.03;;
64339;SDS011;63709;53.258;-8.814;2022-10-19T14:50:46;6.90;;;2.75;;
64339;SDS011;63709;53.258;-8.814;2022-10-19T14:54:24;5.78;;;2.47;;
64339;SDS011;63709;53.258;-8.814;2022-10-19T14:58:04;5.57;;;2.90;;
64339;SDS011;63709;53.258;-8.814;2022-10-19T15:01:49;10.48;;;3.05;;
64339;SDS011;63709;53.258;-8.814;2022-10-19T15:05:26;6.20;;;2.88;;
64339;SDS011;63709;53.258;-8.814;2022-10-19T15:09:00;7.90;;;3.00;;
64339;SDS011;63709;53.258;-8.814;2022-10-19T15:12:28;6.50;;;3.17;;
64339;SDS011;63709;53.258;-8.814;2022-10-19T15:15:58;5.90;;;2.95;;
64339;SDS011;63709;53.258;-8.814;2022-10-19T15:19:31;6.72;;;3.20;;
64339;SDS011;63709;53.258;-8.814;2022-10-19T15:23:02;7.65;;;2.42;;
64339;SDS011;63709;53.258;-8.814;2022-10-19T15:26:50;6.60;;;2.50;;
64339;SDS011;63709;53.258;-8.814;2022-10-19T15:30:22;10.10;;;3.33;;
64339;SDS011;63709;53.258;-8.814;2022-10-19T15:33:53;8.63;;;3.72;;
64339;SDS011;63709;53.258;-8.814;2022-10-19T15:37:19;9.32;;;4.32;;
64339;SDS011;63709;53.258;-8.814;2022-10-19T15:40:57;9.40;;;3.05;;
64339;SDS011;63709;53.258;-8.814;2022-10-19T15:44:42;6.50;;;3.70;;
64339;SDS011;63709;53.258;-8.814;2022-10-19T15:51:42;7.88;;;3.70;;
64339;SDS011;63709;53.258;-8.814;2022-10-19T15:55:10;10.32;;;3.97;;
64339;SDS011;63709;53.258;-8.814;2022-10-19T15:58:34;15.50;;;5.30;;
64339;SDS011;63709;53.258;-8.814;2022-10-19T16:01:58;9.18;;;7.03;;
64339;SDS011;63709;53.258;-8.814;2022-10-19T16:05:22;8.18;;;4.80;;
64339;SDS011;63709;53.258;-8.814;2022-10-19T16:08:49;13.18;;;8.23;;
64339;SDS011;63709;53.258;-8.814;2022-10-19T16:12:13;8.93;;;3.45;;
64339;SDS011;63709;53.258;-8.814;2022-10-19T16:15:39;10.10;;;5.35;;
64339;SDS011;63709;53.258;-8.814;2022-10-19T16:19:03;25.17;;;10.43;;
64339;SDS011;63709;53.258;-8.814;2022-10-19T16:22:28;17.48;;;11.27;;
64339;SDS011;63709;53.258;-8.814;2022-10-19T16:25:52;9.25;;;5.18;;
64339;SDS011;63709;53.258;-8.814;2022-10-19T16:29:16;16.92;;;8.82;;
64339;SDS011;63709;53.258;-8.814;2022-10-19T16:32:41;41.17;;;28.80;;
64339;SDS011;63709;53.258;-8.814;2022-10-19T16:36:06;21.60;;;9.82;;
64339;SDS011;63709;53.258;-8.814;2022-10-19T16:39:30;24.80;;;9.90;;
64339;SDS011;63709;53.258;-8.814;2022-10-19T16:42:55;15.82;;;5.82;;
64339;SDS011;63709;53.258;-8.814;2022-10-19T16:46:20;60.80;;;35.47;;
64339;SDS011;63709;53.258;-8.814;2022-10-19T16:49:45;18.23;;;8.50;;
64339;SDS011;63709;53.258;-8.814;2022-10-19T16:53:09;51.60;;;27.45;;
64339;SDS011;63709;53.258;-8.814;2022-10-19T16:56:35;45.38;;;26.08;;
64339;SDS011;63709;53.258;-8.814;2022-10-19T16:59:59;32.97;;;9.70;;
64339;SDS011;63709;53.258;-8.814;2022-10-19T17:03:29;67.07;;;38.55;;
64339;SDS011;63709;53.258;-8.814;2022-10-19T17:06:53;13.38;;;5.15;;
64339;SDS011;63709;53.258;-8.814;2022-10-19T17:10:18;67.78;;;39.75;;
64339;SDS011;63709;53.258;-8.814;2022-10-19T17:13:45;19.98;;;6.18;;
64339;SDS011;63709;53.258;-8.814;2022-10-19T17:17:10;30.17;;;17.15;;
64339;SDS011;63709;53.258;-8.814;2022-10-19T17:20:35;34.88;;;17.25;;
64339;SDS011;63709;53.258;-8.814;2022-10-19T17:24:04;16.58;;;5.95;;
64339;SDS011;63709;53.258;-8.814;2022-10-19T17:27:29;17.50;;;9.63;;
64339;SDS011;63709;53.258;-8.814;2022-10-19T17:30:54;28.13;;;15.35;;
64339;SDS011;63709;53.258;-8.814;2022-10-19T17:34:20;35.15;;;15.25;;
64339;SDS011;63709;53.258;-8.814;2022-10-19T17:37:44;23.52;;;6.80;;
64339;SDS011;63709;53.258;-8.814;2022-10-19T17:41:10;24.80;;;8.50;;
64339;SDS011;63709;53.258;-8.814;2022-10-19T17:44:34;29.00;;;12.02;;
64339;SDS011;63709;53.258;-8.814;2022-10-19T17:48:00;21.42;;;7.30;;
64339;SDS011;63709;53.258;-8.814;2022-10-19T17:51:25;17.23;;;6.40;;
64339;SDS011;63709;53.258;-8.814;2022-10-19T17:54:50;19.10;;;6.53;;
64339;SDS011;63709;53.258;-8.814;2022-10-19T17:58:14;24.20;;;5.55;;
64339;SDS011;63709;53.258;-8.814;2022-10-19T18:01:38;26.83;;;14.85;;
64339;SDS011;63709;53.258;-8.814;2022-10-19T18:05:06;22.42;;;6.35;;
64339;SDS011;63709;53.258;-8.814;2022-10-19T18:08:36;22.88;;;8.68;;
64339;SDS011;63709;53.258;-8.814;2022-10-19T18:12:01;30.63;;;13.57;;
64339;SDS011;63709;53.258;-8.814;2022-10-19T18:15:25;14.13;;;5.70;;
64339;SDS011;63709;53.258;-8.814;2022-10-19T18:18:53;21.33;;;7.70;;
64339;SDS011;63709;53.258;-8.814;2022-10-19T18:22:19;20.50;;;6.25;;
64339;SDS011;63709;53.258;-8.814;2022-10-19T18:25:43;22.90;;;7.28;;
64339;SDS011;63709;53.258;-8.814;2022-10-19T18:29:09;15.95;;;5.85;;
64339;SDS011;63709;53.258;-8.814;2022-10-19T18:32:34;25.70;;;6.05;;
64339;SDS011;63709;53.258;-8.814;2022-10-19T18:35:58;22.45;;;5.32;;
64339;SDS011;63709;53.258;-8.814;2022-10-19T18:39:23;20.88;;;6.00;;
64339;SDS011;63709;53.258;-8.814;2022-10-19T18:42:47;19.58;;;6.13;;
64339;SDS011;63709;53.258;-8.814;2022-10-19T18:49:42;46.85;;;30.05;;
64339;SDS011;63709;53.258;-8.814;2022-10-19T18:53:06;43.45;;;27.88;;
64339;SDS011;63709;53.258;-8.814;2022-10-19T18:56:30;35.70;;;15.75;;
64339;SDS011;63709;53.258;-8.814;2022-10-19T18:59:55;31.30;;;7.85;;
64339;SDS011;63709;53.258;-8.814;2022-10-19T19:03:29;32.92;;;11.20;;
64339;SDS011;63709;53.258;-8.814;2022-10-19T19:06:53;35.65;;;8.75;;
64339;SDS011;63709;53.258;-8.814;2022-10-19T19:13:48;26.92;;;8.75;;
64339;SDS011;63709;53.258;-8.814;2022-10-19T19:17:13;33.30;;;11.73;;
64339;SDS011;63709;53.258;-8.814;2022-10-19T19:20:42;35.67;;;11.65;;
64339;SDS011;63709;53.258;-8.814;2022-10-19T19:24:12;27.00;;;10.23;;
64339;SDS011;63709;53.258;-8.814;2022-10-19T19:27:37;46.60;;;15.90;;
64339;SDS011;63709;53.258;-8.814;2022-10-19T19:31:02;32.28;;;10.38;;
64339;SDS011;63709;53.258;-8.814;2022-10-19T19:34:29;36.65;;;11.90;;
64339;SDS011;63709;53.258;-8.814;2022-10-19T19:37:54;32.63;;;12.25;;
64339;SDS011;63709;53.258;-8.814;2022-10-19T19:41:25;33.35;;;12.80;;
64339;SDS011;63709;53.258;-8.814;2022-10-19T19:44:52;29.95;;;11.65;;
64339;SDS011;63709;53.258;-8.814;2022-10-19T19:48:23;20.60;;;7.95;;
64339;SDS011;63709;53.258;-8.814;2022-10-19T19:51:49;29.48;;;10.93;;
64339;SDS011;63709;53.258;-8.814;2022-10-19T19:55:15;26.92;;;9.57;;
64339;SDS011;63709;53.258;-8.814;2022-10-19T19:58:40;28.45;;;8.65;;
64339;SDS011;63709;53.258;-8.814;2022-10-19T20:02:05;20.88;;;6.45;;
64339;SDS011;63709;53.258;-8.814;2022-10-19T20:05:30;27.05;;;6.40;;
64339;SDS011;63709;53.258;-8.814;2022-10-19T20:12:23;25.08;;;7.18;;
64339;SDS011;63709;53.258;-8.814;2022-10-19T20:15:48;23.08;;;5.97;;
64339;SDS011;63709;53.258;-8.814;2022-10-19T20:19:12;27.90;;;7.25;;
64339;SDS011;63709;53.258;-8.814;2022-10-19T20:22:38;26.85;;;6.05;;
64339;SDS011;63709;53.258;-8.814;2022-10-19T20:26:03;22.65;;;5.32;;
64339;SDS011;63709;53.258;-8.814;2022-10-19T20:29:27;28.30;;;10.00;;
64339;SDS011;63709;53.258;-8.814;2022-10-19T20:32:54;26.13;;;6.15;;
64339;SDS011;63709;53.258;-8.814;2022-10-19T20:36:20;28.85;;;8.10;;
64339;SDS011;63709;53.258;-8.814;2022-10-19T20:39:46;30.83;;;9.85;;
64339;SDS011;63709;53.258;-8.814;2022-10-19T20:43:10;33.55;;;13.48;;
64339;SDS011;63709;53.258;-8.814;2022-10-19T20:46:34;35.60;;;13.88;;
64339;SDS011;63709;53.258;-8.814;2022-10-19T20:49:59;24.17;;;6.53;;
64339;SDS011;63709;53.258;-8.814;2022-10-19T20:53:36;23.10;;;5.13;;
64339;SDS011;63709;53.258;-8.814;2022-10-19T20:57:01;27.00;;;6.60;;
64339;SDS011;63709;53.258;-8.814;2022-10-19T21:00:26;24.35;;;6.28;;
64339;SDS011;63709;53.258;-8.814;2022-10-19T21:03:51;20.80;;;4.55;;
64339;SDS011;63709;53.258;-8.814;2022-10-19T21:07:16;23.80;;;5.50;;
64339;SDS011;63709;53.258;-8.814;2022-10-19T21:10:41;23.80;;;5.78;;
64339;SDS011;63709;53.258;-8.814;2022-10-19T21:14:07;27.83;;;5.68;;
64339;SDS011;63709;53.258;-8.814;2022-10-19T21:17:32;25.80;;;6.47;;
64339;SDS011;63709;53.258;-8.814;2022-10-19T21:20:57;18.00;;;5.18;;
64339;SDS011;63709;53.258;-8.814;2022-10-19T21:24:28;32.95;;;6.95;;
64339;SDS011;63709;53.258;-8.814;2022-10-19T21:27:55;25.83;;;6.53;;
64339;SDS011;63709;53.258;-8.814;2022-10-19T21:31:20;18.95;;;5.13;;
64339;SDS011;63709;53.258;-8.814;2022-10-19T21:34:45;22.50;;;5.93;;
64339;SDS011;63709;53.258;-8.814;2022-10-19T21:38:09;20.20;;;6.30;;
64339;SDS011;63709;53.258;-8.814;2022-10-19T21:41:34;23.88;;;6.60;;
64339;SDS011;63709;53.258;-8.814;2022-10-19T21:44:58;23.13;;;6.80;;
64339;SDS011;63709;53.258;-8.814;2022-10-19T21:48:25;23.08;;;6.65;;
64339;SDS011;63709;53.258;-8.814;2022-10-19T21:51:53;20.60;;;5.50;;
64339;SDS011;63709;53.258;-8.814;2022-10-19T21:55:17;20.88;;;5.57;;
64339;SDS011;63709;53.258;-8.814;2022-10-19T21:58:45;16.65;;;5.80;;
64339;SDS011;63709;53.258;-8.814;2022-10-19T22:02:09;26.35;;;5.60;;
64339;SDS011;63709;53.258;-8.814;2022-10-19T22:05:35;21.23;;;6.15;;
64339;SDS011;63709;53.258;-8.814;2022-10-19T22:09:08;22.10;;;5.57;;
64339;SDS011;63709;53.258;-8.814;2022-10-19T22:12:33;20.17;;;5.88;;
64339;SDS011;63709;53.258;-8.814;2022-10-19T22:16:07;20.35;;;6.22;;
64339;SDS011;63709;53.258;-8.814;2022-10-19T22:19:32;20.77;;;6.72;;
64339;SDS011;63709;53.258;-8.814;2022-10-19T22:23:00;30.23;;;7.65;;
64339;SDS011;63709;53.258;-8.814;2022-10-19T22:26:27;20.67;;;6.05;;
64339;SDS011;63709;53.258;-8.814;2022-10-19T22:29:51;17.00;;;6.40;;
64339;SDS011;63709;53.258;-8.814;2022-10-19T22:33:23;31.10;;;7.80;;
64339;SDS011;63709;53.258;-8.814;2022-10-19T22:36:48;24.42;;;7.10;;
64339;SDS011;63709;53.258;-8.814;2022-10-19T22:40:12;24.50;;;7.82;;
64339;SDS011;63709;53.258;-8.814;2022-10-19T22:44:13;23.70;;;7.97;;
64339;SDS011;63709;53.258;-8.814;2022-10-19T22:47:38;25.92;;;7.88;;
64339;SDS011;63709;53.258;-8.814;2022-10-19T22:51:04;31.45;;;9.05;;
64339;SDS011;63709;53.258;-8.814;2022-10-19T22:54:28;27.08;;;8.10;;
64339;SDS011;63709;53.258;-8.814;2022-10-19T22:57:52;26.30;;;8.45;;